Time;durP1;ratioP1;P1;durP2;ratioP2;P2;SDS_P1;SDS_P2;PMS_P1;PMS_P2;Temp;Humidity;BMP_temperature;BMP_pressure;BME280_temperature;BME280_humidity;BME280_pressure;Samples;Min_cycle;Max_cycle;Signal;HPM_P1;HPM_P2
2022/05/06 00:01:52;;;;;;;8.73;6.00;;;8.20;99.90;;;;;;5132911;27;20050;-74
2022/05/06 00:04:17;;;;;;;7.30;5.43;;;8.20;99.90;;;;;;5112721;27;20042;-75
2022/05/06 00:06:43;;;;;;;7.65;5.72;;;8.20;99.90;;;;;;5134020;27;20138;-75
2022/05/06 00:09:09;;;;;;;7.63;5.97;;;8.20;99.90;;;;;;5129179;27;20046;-75
2022/05/06 00:11:35;;;;;;;8.00;5.97;;;8.20;99.90;;;;;;5133680;27;20110;-75
2022/05/06 00:14:02;;;;;;;7.82;6.10;;;8.20;99.90;;;;;;5132853;27;20039;-75
2022/05/06 00:16:28;;;;;;;7.38;5.75;;;8.10;99.90;;;;;;5125093;27;20043;-75
2022/05/06 00:18:54;;;;;;;6.90;5.28;;;8.10;99.90;;;;;;5136548;27;20082;-75
2022/05/06 00:21:20;;;;;;;7.32;5.40;;;8.00;99.90;;;;;;5112393;27;20038;-75
2022/05/06 00:23:46;;;;;;;7.55;5.65;;;8.00;99.90;;;;;;5130041;27;20055;-75
2022/05/06 00:26:12;;;;;;;6.93;5.30;;;8.00;99.90;;;;;;5112841;28;20066;-76
2022/05/06 00:28:39;;;;;;;6.40;4.63;;;7.90;99.90;;;;;;5129845;28;20054;-75
2022/05/06 00:31:06;;;;;;;6.80;5.00;;;7.90;99.90;;;;;;5129421;27;20517;-75
2022/05/06 00:33:32;;;;;;;5.45;4.53;;;7.90;99.90;;;;;;5129942;27;20047;-75
2022/05/06 00:36:00;;;;;;;6.60;4.68;;;7.80;99.90;;;;;;5122409;28;20040;-75
2022/05/06 00:38:26;;;;;;;6.32;3.83;;;7.90;99.90;;;;;;5145532;27;20197;-75
2022/05/06 00:40:52;;;;;;;6.40;4.70;;;7.90;99.90;;;;;;5129252;27;20126;-75
2022/05/06 00:43:19;;;;;;;5.85;4.20;;;7.90;99.90;;;;;;5145293;27;20510;-75
2022/05/06 00:45:47;;;;;;;;;;;7.90;99.90;;;;;;5128985;28;20039;-75
2022/05/06 00:48:13;;;;;;;6.15;4.43;;;7.80;99.90;;;;;;5140573;27;19927;-75
2022/05/06 00:50:39;;;;;;;;;;;7.80;99.90;;;;;;5141887;27;20539;-75
2022/05/06 00:53:08;;;;;;;4.63;3.33;;;7.80;99.90;;;;;;5134281;27;19923;-75
2022/05/06 00:55:35;;;;;;;4.68;3.40;;;7.80;99.90;;;;;;5128712;27;20043;-75
2022/05/06 00:58:02;;;;;;;3.72;2.67;;;7.80;99.90;;;;;;5147910;27;20088;-75
2022/05/06 01:00:29;;;;;;;3.88;2.90;;;7.90;99.90;;;;;;5133498;27;20039;-75
2022/05/06 01:02:55;;;;;;;4.82;3.25;;;7.90;99.90;;;;;;5132970;27;20552;-74
2022/05/06 01:05:25;;;;;;;4.82;3.55;;;7.90;99.90;;;;;;5135327;27;20046;-75
2022/05/06 01:07:51;;;;;;;5.50;3.85;;;7.80;99.90;;;;;;5139465;27;20415;-75
2022/05/06 01:10:18;;;;;;;;;;;7.80;99.90;;;;;;5129179;27;20035;-75
2022/05/06 01:12:44;;;;;;;4.88;3.50;;;7.80;99.90;;;;;;5145273;27;19926;-75
2022/05/06 01:15:23;;;;;;;4.90;3.60;;;7.80;99.90;;;;;;5151858;27;20118;-75
2022/05/06 01:17:50;;;;;;;4.63;3.38;;;7.70;99.90;;;;;;5133884;27;20543;-75
2022/05/06 01:20:17;;;;;;;5.38;3.60;;;7.70;99.90;;;;;;5151091;27;20039;-75
2022/05/06 01:22:45;;;;;;;4.93;3.25;;;7.80;99.90;;;;;;5129308;27;20067;-75
2022/05/06 01:25:11;;;;;;;3.80;2.60;;;7.80;99.90;;;;;;5149870;27;20042;-75
2022/05/06 01:27:44;;;;;;;2.65;2.00;;;7.90;99.90;;;;;;5150985;27;20038;-75
2022/05/06 01:30:12;;;;;;;2.40;1.70;;;7.90;99.90;;;;;;5138853;27;20051;-75
2022/05/06 01:32:38;;;;;;;2.78;2.15;;;7.90;99.90;;;;;;5131096;27;20558;-75
2022/05/06 01:35:05;;;;;;;3.35;2.40;;;7.90;99.90;;;;;;5138016;27;20106;-74
2022/05/06 01:37:35;;;;;;;3.67;2.42;;;7.90;99.90;;;;;;5145180;27;20051;-74
2022/05/06 01:40:04;;;;;;;2.60;1.70;;;7.90;99.90;;;;;;5145026;27;20099;-75
2022/05/06 01:42:34;;;;;;;1.67;1.20;;;7.80;99.90;;;;;;5144233;27;20058;-75
2022/05/06 01:45:01;;;;;;;2.45;1.35;;;7.70;99.90;;;;;;5116816;27;20055;-75
2022/05/06 01:47:27;;;;;;;1.70;1.30;;;7.70;99.90;;;;;;5132222;27;20506;-75
2022/05/06 01:49:54;;;;;;;1.83;1.30;;;7.70;99.90;;;;;;5127125;27;20061;-74
2022/05/06 01:52:21;;;;;;;1.55;1.20;;;7.60;99.90;;;;;;5136694;27;20043;-75
2022/05/06 01:54:47;;;;;;;1.42;1.27;;;7.60;99.90;;;;;;5147194;27;20034;-74
2022/05/06 01:57:14;;;;;;;2.03;1.30;;;7.50;99.90;;;;;;5117471;27;20512;-74
2022/05/06 01:59:40;;;;;;;1.30;1.00;;;7.50;99.90;;;;;;5134144;27;20089;-74
2022/05/06 02:02:05;;;;;;;2.08;1.20;;;7.40;99.90;;;;;;5145412;27;20038;-74
2022/05/06 02:07:15;;;;;;;1.92;1.48;;;7.40;99.90;;;;;;5135282;27;20104;-74
2022/05/06 02:09:41;;;;;;;1.55;1.00;;;7.40;99.90;;;;;;5118372;27;20046;-74
2022/05/06 02:12:07;;;;;;;1.35;1.15;;;7.30;99.90;;;;;;5131052;27;20478;-74
2022/05/06 02:14:33;;;;;;;1.30;0.95;;;7.30;99.90;;;;;;5127980;27;20056;-74
2022/05/06 02:16:59;;;;;;;;;;;7.20;99.90;;;;;;5137150;27;20042;-74
2022/05/06 02:19:25;;;;;;;1.67;1.25;;;7.20;99.90;;;;;;5150876;27;19967;-75
2022/05/06 02:21:51;;;;;;;1.48;1.15;;;7.20;99.90;;;;;;5137840;27;20492;-75
2022/05/06 02:24:17;;;;;;;1.13;0.90;;;7.10;99.90;;;;;;5146665;27;20051;-75
2022/05/06 02:26:42;;;;;;;1.50;1.30;;;7.10;99.90;;;;;;5142328;27;20031;-75
2022/05/06 02:29:08;;;;;;;1.70;1.35;;;7.10;99.90;;;;;;5144766;27;20039;-75
2022/05/06 02:34:18;;;;;;;2.40;1.83;;;7.00;99.90;;;;;;5146404;27;20038;-74
2022/05/06 02:36:47;;;;;;;2.08;1.63;;;7.00;99.90;;;;;;5136796;27;20034;-74
2022/05/06 02:39:12;;;;;;;2.05;1.70;;;6.90;99.90;;;;;;5149215;27;20047;-74
2022/05/06 02:41:38;;;;;;;2.63;2.05;;;6.90;99.90;;;;;;5149122;27;20046;-74
2022/05/06 02:44:04;;;;;;;1.80;1.52;;;6.90;99.90;;;;;;5149507;27;20516;-74
2022/05/06 02:46:34;;;;;;;2.13;1.50;;;6.80;99.90;;;;;;5148545;27;20031;-74
2022/05/06 02:49:01;;;;;;;2.13;1.33;;;6.80;99.90;;;;;;5133337;27;20095;-74
2022/05/06 02:51:31;;;;;;;2.53;1.70;;;6.80;99.90;;;;;;5137638;27;20042;-74
2022/05/06 02:53:57;;;;;;;2.60;1.90;;;6.70;99.90;;;;;;5141881;27;20069;-74
2022/05/06 02:56:23;;;;;;;2.85;2.03;;;6.80;99.90;;;;;;5134763;27;20493;-74
2022/05/06 02:58:49;;;;;;;3.08;2.05;;;6.80;99.90;;;;;;5132249;27;20082;-74
2022/05/06 03:01:15;;;;;;;2.33;1.70;;;6.80;99.90;;;;;;5131333;27;20143;-74
2022/05/06 03:03:41;;;;;;;1.83;1.45;;;6.80;99.90;;;;;;5130565;27;20045;-74
2022/05/06 03:06:06;;;;;;;1.55;1.23;;;6.70;99.90;;;;;;5136573;27;20134;-76
2022/05/06 03:08:32;;;;;;;2.00;1.37;;;6.70;99.90;;;;;;5129910;27;20050;-75
2022/05/06 03:11:01;;;;;;;1.63;1.10;;;6.80;99.90;;;;;;5116730;27;20341;-74
2022/05/06 03:13:27;;;;;;;2.38;1.60;;;7.00;99.90;;;;;;5135515;27;20138;-74
2022/05/06 03:15:53;;;;;;;2.50;1.75;;;7.10;99.90;;;;;;5150954;27;20043;-73
2022/05/06 03:18:19;;;;;;;2.17;1.40;;;7.20;99.90;;;;;;5151116;27;20048;-73
2022/05/06 03:20:45;;;;;;;2.60;1.50;;;7.30;99.90;;;;;;5135330;27;20639;-75
2022/05/06 03:23:13;;;;;;;2.13;1.42;;;7.30;99.90;;;;;;5140102;27;20046;-75
2022/05/06 03:25:39;;;;;;;2.88;1.60;;;7.40;99.90;;;;;;5140336;27;20113;-75
2022/05/06 03:28:08;;;;;;;2.65;1.38;;;7.40;99.90;;;;;;5132553;27;20131;-74
2022/05/06 03:30:39;;;;;;;1.88;1.30;;;7.50;99.90;;;;;;5131266;27;20058;-74
2022/05/06 03:33:09;;;;;;;3.97;1.95;;;7.60;99.90;;;;;;5131288;27;20080;-74
2022/05/06 03:35:37;;;;;;;2.92;1.58;;;7.70;99.90;;;;;;5132792;27;20047;-74
2022/05/06 03:38:04;;;;;;;4.70;2.40;;;7.70;99.90;;;;;;5130984;27;20095;-74
2022/05/06 03:40:30;;;;;;;6.30;2.70;;;7.80;99.90;;;;;;5130121;27;20053;-74
2022/05/06 03:42:55;;;;;;;4.88;2.30;;;7.80;99.90;;;;;;5127878;27;20043;-74
2022/05/06 03:45:21;;;;;;;6.57;2.95;;;7.90;99.90;;;;;;5144111;27;20119;-75
2022/05/06 03:47:47;;;;;;;4.95;2.65;;;7.90;99.90;;;;;;5130157;27;20051;-74
2022/05/06 03:52:58;;;;;;;6.38;3.40;;;8.10;99.90;;;;;;5138443;27;20034;-74
2022/05/06 03:55:25;;;;;;;6.03;3.30;;;8.20;99.90;;;;;;5145674;27;20042;-75
2022/05/06 03:57:51;;;;;;;6.97;4.15;;;8.30;99.90;;;;;;5142293;27;20569;-75
2022/05/06 04:00:17;;;;;;;13.27;8.18;;;8.40;99.90;;;;;;5132197;27;20121;-75
2022/05/06 04:02:43;;;;;;;16.02;9.95;;;8.50;99.90;;;;;;5130476;27;20051;-75
2022/05/06 04:05:09;;;;;;;14.90;11.00;;;8.50;99.90;;;;;;5131065;27;20100;-75
2022/05/06 04:07:35;;;;;;;13.23;9.13;;;8.60;99.90;;;;;;5148982;27;20139;-75
2022/05/06 04:10:01;;;;;;;13.05;9.90;;;8.60;99.90;;;;;;5131457;27;20439;-76
2022/05/06 04:12:27;;;;;;;12.82;9.38;;;8.60;99.90;;;;;;5146092;27;20098;-75
2022/05/06 04:14:53;;;;;;;17.17;10.65;;;8.50;99.90;;;;;;5145638;27;20031;-75
2022/05/06 04:17:20;;;;;;;10.90;8.32;;;8.50;99.90;;;;;;5134950;27;20046;-75
2022/05/06 04:25:17;;;;;;;9.05;7.43;;;8.40;99.90;;;;;;5137478;27;20066;-74
2022/05/06 04:27:44;;;;;;;14.10;8.55;;;8.40;99.90;;;;;;5146181;27;20043;-74
2022/05/06 04:30:11;;;;;;;11.45;8.82;;;8.40;99.90;;;;;;5139628;27;20460;-74
2022/05/06 04:32:37;;;;;;;8.13;6.78;;;8.40;99.90;;;;;;5129317;27;20152;-74
2022/05/06 04:35:05;;;;;;;6.35;5.45;;;8.40;99.90;;;;;;5146780;27;20160;-75
2022/05/06 04:37:32;;;;;;;6.55;5.55;;;8.40;99.90;;;;;;5146620;27;20050;-74
2022/05/06 04:39:58;;;;;;;5.20;4.60;;;8.40;99.90;;;;;;5147834;27;20043;-75
2022/05/06 04:42:25;;;;;;;6.63;5.40;;;8.50;99.90;;;;;;5134967;27;20043;-74
2022/05/06 04:44:51;;;;;;;7.95;6.30;;;8.50;99.90;;;;;;5133141;27;20099;-74
2022/05/06 04:47:16;;;;;;;6.18;5.05;;;8.60;99.90;;;;;;5116766;27;20035;-74
2022/05/06 04:49:42;;;;;;;10.95;6.63;;;8.60;99.90;;;;;;5134043;27;20476;-74
2022/05/06 04:52:08;;;;;;;10.13;7.80;;;8.70;99.90;;;;;;5136254;27;20049;-74
2022/05/06 04:54:34;;;;;;;7.57;6.25;;;8.70;99.90;;;;;;5135528;27;20067;-75
2022/05/06 04:56:59;;;;;;;6.72;5.47;;;8.80;99.90;;;;;;5133347;27;20330;-75
2022/05/06 04:59:25;;;;;;;6.03;4.50;;;8.80;99.90;;;;;;5101130;27;20042;-75
2022/05/06 05:01:51;;;;;;;19.42;8.50;;;8.90;99.90;;;;;;5134028;27;20439;-75
2022/05/06 05:04:16;;;;;;;14.10;9.30;;;8.90;99.90;;;;;;5115785;27;20057;-75
2022/05/06 05:06:42;;;;;;;11.88;8.93;;;8.90;99.90;;;;;;5132487;27;20482;-75
2022/05/06 05:09:08;;;;;;;13.23;8.20;;;8.90;99.90;;;;;;5135990;27;20042;-75
2022/05/06 05:11:35;;;;;;;8.90;7.18;;;8.90;99.90;;;;;;5118527;27;20484;-75
2022/05/06 05:14:03;;;;;;;11.55;9.30;;;8.90;99.90;;;;;;5150462;27;20049;-75
2022/05/06 05:16:32;;;;;;;10.75;8.55;;;9.00;99.90;;;;;;5129688;27;20039;-74
2022/05/06 05:18:58;;;;;;;11.68;9.30;;;9.00;99.90;;;;;;5134313;27;20573;-76
2022/05/06 05:21:23;;;;;;;10.05;7.82;;;9.10;99.90;;;;;;5142760;27;20129;-77
2022/05/06 05:23:49;;;;;;;21.00;14.68;;;9.20;99.90;;;;;;5125748;27;20046;-77
2022/05/06 05:26:15;;;;;;;17.63;13.73;;;9.10;99.90;;;;;;5116748;27;20046;-77
2022/05/06 05:28:40;;;;;;;14.32;10.95;;;9.20;99.90;;;;;;5134927;27;20043;-77
2022/05/06 05:31:06;;;;;;;16.05;12.30;;;9.10;99.90;;;;;;5137460;27;20046;-77
2022/05/06 05:33:32;;;;;;;17.88;12.18;;;9.30;99.90;;;;;;5118427;27;20045;-77
2022/05/06 05:35:58;;;;;;;19.40;13.05;;;9.20;99.90;;;;;;5138623;27;20390;-77
2022/05/06 05:38:26;;;;;;;19.60;14.55;;;9.20;99.90;;;;;;5142169;27;20049;-77
2022/05/06 05:40:52;;;;;;;15.60;12.63;;;9.30;99.90;;;;;;5145180;27;20047;-77
2022/05/06 05:48:50;;;;;;;11.88;9.77;;;9.20;99.90;;;;;;5141805;27;20414;-77
2022/05/06 05:51:15;;;;;;;9.98;8.10;;;9.30;99.90;;;;;;5144884;27;20049;-77
2022/05/06 05:53:41;;;;;;;6.95;5.70;;;9.30;99.90;;;;;;5129595;27;20043;-77
2022/05/06 05:56:07;;;;;;;13.45;10.35;;;9.40;99.90;;;;;;5129382;27;20451;-77
2022/05/06 05:58:34;;;;;;;12.43;9.75;;;9.50;99.90;;;;;;5121393;27;20130;-77
2022/05/06 06:01:00;;;;;;;14.15;11.30;;;9.50;99.90;;;;;;5137151;27;20461;-76
2022/05/06 06:03:28;;;;;;;14.48;11.55;;;9.50;99.90;;;;;;5141007;27;20043;-76
2022/05/06 06:05:53;;;;;;;19.98;15.02;;;9.60;99.90;;;;;;5134790;27;20050;-76
2022/05/06 06:08:20;;;;;;;18.33;12.60;;;9.60;99.90;;;;;;5134275;27;20057;-78
2022/05/06 06:10:46;;;;;;;18.65;13.80;;;9.60;99.90;;;;;;5138019;27;20039;-77
2022/05/06 06:13:11;;;;;;;17.73;13.23;;;9.60;99.90;;;;;;5138258;27;20046;-76
2022/05/06 06:15:37;;;;;;;21.15;13.18;;;9.50;99.90;;;;;;5133398;27;20035;-76
2022/05/06 06:18:03;;;;;;;18.10;12.70;;;9.60;99.90;;;;;;5112281;27;20051;-76
2022/05/06 06:20:29;;;;;;;17.20;13.10;;;9.60;99.90;;;;;;5136255;27;20090;-76
2022/05/06 06:22:54;;;;;;;18.90;13.38;;;9.60;99.90;;;;;;5113038;27;20055;-76
2022/05/06 06:25:20;;;;;;;17.13;11.73;;;9.70;99.90;;;;;;5125272;27;20070;-75
2022/05/06 06:27:46;;;;;;;12.68;9.38;;;9.80;99.90;;;;;;5132367;27;20046;-75
2022/05/06 06:30:12;;;;;;;13.32;9.85;;;9.90;99.90;;;;;;5131746;27;20050;-75
2022/05/06 06:32:37;;;;;;;15.60;11.45;;;10.10;99.90;;;;;;5133066;27;20092;-75
2022/05/06 06:35:03;;;;;;;15.68;11.93;;;10.10;99.90;;;;;;5152911;27;20043;-75
2022/05/06 06:37:31;;;;;;;16.38;11.63;;;10.30;99.90;;;;;;5126582;27;20152;-74
2022/05/06 06:39:57;;;;;;;12.25;9.50;;;10.30;99.90;;;;;;5135410;27;20042;-75
2022/05/06 06:42:23;;;;;;;15.18;10.98;;;10.30;99.90;;;;;;5127353;27;20076;-75
2022/05/06 06:44:49;;;;;;;14.30;9.95;;;10.30;99.90;;;;;;5135569;27;20043;-75
2022/05/06 06:47:15;;;;;;;11.13;7.90;;;10.50;99.90;;;;;;5137537;27;20047;-75
2022/05/06 06:49:41;;;;;;;17.75;13.20;;;10.50;99.90;;;;;;5137938;27;20056;-74
2022/05/06 06:52:07;;;;;;;13.57;10.10;;;10.60;99.90;;;;;;5142705;27;20069;-75
2022/05/06 06:54:33;;;;;;;15.70;11.45;;;10.60;99.90;;;;;;5132713;27;20067;-75
2022/05/06 06:56:58;;;;;;;14.18;9.95;;;10.70;99.90;;;;;;5140572;27;20517;-74
2022/05/06 06:59:24;;;;;;;13.27;9.85;;;10.80;99.90;;;;;;5144965;27;20042;-75
2022/05/06 07:01:50;;;;;;;19.80;14.25;;;10.90;99.90;;;;;;5141155;27;20102;-75
2022/05/06 07:04:16;;;;;;;20.95;14.32;;;11.00;99.90;;;;;;5131869;27;20118;-74
2022/05/06 07:12:10;;;;;;;19.50;13.60;;;11.10;99.90;;;;;;5134153;27;20053;-75
2022/05/06 07:14:36;;;;;;;18.15;12.95;;;11.30;99.90;;;;;;5131128;27;20035;-76
2022/05/06 07:17:05;;;;;;;17.25;12.73;;;11.20;99.90;;;;;;5131295;27;20042;-75
2022/05/06 07:19:30;;;;;;;22.80;16.20;;;11.40;99.90;;;;;;5114440;27;20039;-75
2022/05/06 07:21:56;;;;;;;18.30;12.80;;;11.30;99.90;;;;;;5115876;27;20043;-75
2022/05/06 07:24:24;;;;;;;18.20;13.55;;;11.40;99.90;;;;;;5136008;27;20047;-75
2022/05/06 07:26:50;;;;;;;14.88;11.05;;;11.40;99.90;;;;;;5131366;27;20042;-75
2022/05/06 07:29:16;;;;;;;12.23;8.63;;;11.50;99.90;;;;;;5148421;27;20047;-75
2022/05/06 07:31:43;;;;;;;16.33;11.38;;;11.60;99.90;;;;;;5131079;27;20523;-74
2022/05/06 07:34:10;;;;;;;18.42;13.02;;;11.70;99.90;;;;;;5113406;27;20479;-75
2022/05/06 07:36:41;;;;;;;17.13;12.02;;;11.70;99.90;;;;;;5138273;27;20038;-75
2022/05/06 07:39:11;;;;;;;17.85;12.13;;;11.80;99.90;;;;;;5138123;27;20074;-74
2022/05/06 07:41:37;;;;;;;16.10;11.30;;;11.80;99.90;;;;;;5131626;27;20106;-75
2022/05/06 07:44:04;;;;;;;18.27;11.98;;;11.90;99.90;;;;;;5113580;27;20428;-75
2022/05/06 07:46:30;;;;;;;15.18;10.25;;;11.90;99.90;;;;;;5147769;27;20099;-76
2022/05/06 07:48:56;;;;;;;13.90;9.95;;;12.00;99.90;;;;;;5113360;27;20051;-74
2022/05/06 07:51:21;;;;;;;12.23;9.13;;;12.00;99.90;;;;;;5112209;27;20096;-75
2022/05/06 07:53:48;;;;;;;11.95;9.07;;;12.20;99.90;;;;;;5114922;27;20078;-77
2022/05/06 07:56:14;;;;;;;12.10;8.82;;;12.30;99.90;;;;;;5135436;27;20458;-75
2022/05/06 07:58:39;;;;;;;12.93;8.98;;;12.30;99.90;;;;;;5124708;27;20039;-75
2022/05/06 08:01:06;;;;;;;9.13;7.35;;;12.60;99.90;;;;;;5125117;27;20046;-75
2022/05/06 08:06:17;;;;;;;10.07;7.93;;;12.80;99.90;;;;;;5146647;27;20128;-74
2022/05/06 08:08:43;;;;;;;11.15;8.05;;;12.90;99.90;;;;;;5114816;27;20047;-74
2022/05/06 08:11:08;;;;;;;10.68;8.30;;;12.90;99.90;;;;;;5133214;27;20078;-75
2022/05/06 08:13:34;;;;;;;9.18;7.82;;;12.90;99.90;;;;;;5150905;27;20035;-75
2022/05/06 08:16:00;;;;;;;8.65;6.97;;;12.90;99.90;;;;;;5148186;27;20041;-75
2022/05/06 08:18:26;;;;;;;5.93;4.93;;;13.00;99.90;;;;;;5129198;27;20477;-75
2022/05/06 08:20:52;;;;;;;5.63;4.82;;;13.30;99.90;;;;;;5112152;27;20043;-75
2022/05/06 08:23:22;;;;;;;6.32;5.72;;;13.40;99.90;;;;;;5130226;27;20478;-74
2022/05/06 08:25:52;;;;;;;6.55;5.55;;;13.40;99.90;;;;;;5131970;27;20085;-73
2022/05/06 08:28:19;;;;;;;4.95;3.85;;;13.40;99.90;;;;;;5130613;27;20088;-74
2022/05/06 08:30:49;;;;;;;5.18;4.57;;;13.70;99.90;;;;;;5132227;27;20031;-75
2022/05/06 08:33:15;;;;;;;5.80;4.55;;;13.70;99.90;;;;;;5132569;27;20382;-75
2022/05/06 08:35:42;;;;;;;5.65;5.00;;;13.90;99.90;;;;;;5141684;27;20094;-76
2022/05/06 08:38:08;;;;;;;4.55;4.05;;;14.00;99.90;;;;;;5137626;27;20046;-75
2022/05/06 08:40:35;;;;;;;;;;;14.10;99.90;;;;;;5133145;27;20039;-76
2022/05/06 08:43:02;;;;;;;4.47;4.07;;;14.30;99.90;;;;;;5130457;27;20374;-75
2022/05/06 08:51:01;;;;;;;4.80;3.78;;;14.60;99.90;;;;;;5133689;27;20390;-75
2022/05/06 08:53:28;;;;;;;4.72;4.22;;;14.80;99.90;;;;;;5147896;27;20038;-75
2022/05/06 08:55:56;;;;;;;5.88;4.70;;;15.00;99.90;;;;;;5128411;27;20110;-74
2022/05/06 08:58:24;;;;;;;4.95;4.15;;;15.10;99.90;;;;;;5142999;27;20039;-75
2022/05/06 09:00:50;;;;;;;4.60;3.88;;;15.60;99.90;;;;;;5115939;27;20104;-74
2022/05/06 09:03:17;;;;;;;4.90;3.63;;;15.60;99.90;;;;;;5142526;27;20472;-75
2022/05/06 09:05:50;;;;;;;5.15;4.60;;;15.90;99.90;;;;;;5140578;27;20340;-75
2022/05/06 09:08:16;;;;;;;3.80;3.38;;;16.00;99.90;;;;;;5117230;27;20034;-74
2022/05/06 09:10:42;;;;;;;;;;;16.30;99.90;;;;;;5138735;27;20039;-74
2022/05/06 09:13:08;;;;;;;4.35;2.75;;;16.00;99.90;;;;;;5136680;27;19920;-75
2022/05/06 09:18:23;;;;;;;3.38;3.08;;;16.00;99.90;;;;;;5126771;27;20043;-75
2022/05/06 09:20:50;;;;;;;3.92;3.20;;;16.00;99.90;;;;;;5141331;27;20042;-75
2022/05/06 09:23:42;;;;;;;3.67;3.00;;;16.00;99.90;;;;;;5131788;27;20050;-76
2022/05/06 09:26:16;;;;;;;3.80;2.80;;;16.20;99.90;;;;;;5129982;27;20055;-75
2022/05/06 09:28:43;;;;;;;3.88;2.70;;;16.50;99.90;;;;;;5128534;27;20091;-75
2022/05/06 09:31:10;;;;;;;2.60;2.40;;;16.80;99.90;;;;;;5137045;27;20047;-75
2022/05/06 09:33:40;;;;;;;3.20;2.90;;;17.10;99.90;;;;;;5131835;27;20046;-76
2022/05/06 09:36:26;;;;;;;3.72;3.30;;;17.40;99.90;;;;;;5138232;27;20047;-76
2022/05/06 09:39:05;;;;;;;3.60;3.10;;;17.80;99.90;;;;;;5137920;27;20035;-76
2022/05/06 09:41:32;;;;;;;2.92;2.63;;;17.90;99.90;;;;;;5139197;27;20049;-76
2022/05/06 09:44:02;;;;;;;3.05;2.75;;;17.90;99.90;;;;;;5150049;27;20071;-76
2022/05/06 09:46:28;;;;;;;3.30;3.00;;;17.80;99.90;;;;;;5154192;27;20042;-76
2022/05/06 09:48:56;;;;;;;3.20;2.90;;;17.60;99.90;;;;;;5150183;27;20050;-76
2022/05/06 09:51:33;;;;;;;4.15;3.38;;;17.60;99.90;;;;;;5132478;27;20035;-75
2022/05/06 09:54:00;;;;;;;2.80;2.60;;;17.50;99.90;;;;;;5137434;27;20111;-76
2022/05/06 09:56:30;;;;;;;2.88;2.58;;;17.50;99.90;;;;;;5151030;27;20103;-76
2022/05/06 09:58:56;;;;;;;3.22;2.92;;;17.60;99.90;;;;;;5133145;27;20035;-76
2022/05/06 10:01:22;;;;;;;2.47;2.10;;;17.50;99.90;;;;;;5120266;27;20401;-76
2022/05/06 10:03:48;;;;;;;;;;;17.70;99.90;;;;;;5137444;27;20039;-77
2022/05/06 10:06:14;;;;;;;5.95;3.30;;;17.60;99.90;;;;;;5135091;27;19963;-77
2022/05/06 10:08:52;;;;;;;3.70;3.40;;;17.70;99.90;;;;;;5138612;27;20043;-77
2022/05/06 10:11:29;;;;;;;3.13;2.72;;;17.60;99.90;;;;;;5137460;27;20050;-77
2022/05/06 10:14:00;;;;;;;3.42;2.78;;;17.70;99.90;;;;;;5133868;27;20111;-78
2022/05/06 10:16:36;;;;;;;2.42;2.20;;;17.70;99.90;;;;;;5134577;27;20047;-78
2022/05/06 10:19:03;;;;;;;2.58;2.20;;;18.00;99.90;;;;;;5132885;27;20039;-77
2022/05/06 10:21:48;;;;;;;3.28;2.70;;;18.20;99.90;;;;;;5152523;27;20393;-76
2022/05/06 10:24:17;;;;;;;2.33;2.10;;;18.20;99.90;;;;;;5153411;27;20050;-76
2022/05/06 10:26:53;;;;;;;4.38;2.50;;;18.40;99.90;;;;;;5152794;27;20099;-76
2022/05/06 10:32:33;;;;;;;3.17;2.72;;;18.60;99.90;;;;;;5152530;27;20130;-77
2022/05/06 10:35:02;;;;;;;2.38;1.80;;;18.50;99.90;;;;;;5151185;27;20051;-77
2022/05/06 10:37:43;;;;;;;3.42;2.38;;;18.70;99.90;;;;;;5152549;27;20154;-77
2022/05/06 10:40:24;;;;;;;2.83;2.25;;;18.80;99.90;;;;;;5153093;27;20088;-77
2022/05/06 10:42:51;;;;;;;2.42;1.88;;;19.00;99.70;;;;;;5151797;27;20072;-76
2022/05/06 10:45:26;;;;;;;2.28;2.08;;;19.00;99.80;;;;;;5152250;27;20054;-77
2022/05/06 10:47:52;;;;;;;2.67;2.25;;;19.20;99.40;;;;;;5142093;27;20108;-77
2022/05/06 10:50:19;;;;;;;3.30;2.20;;;19.20;99.90;;;;;;5145624;27;20085;-77
2022/05/06 10:52:46;;;;;;;2.72;2.20;;;19.20;98.40;;;;;;5128913;27;20043;-77
2022/05/06 10:55:14;;;;;;;2.80;2.10;;;19.00;97.00;;;;;;5131878;27;20042;-77
2022/05/06 10:58:00;;;;;;;2.70;1.75;;;18.90;97.20;;;;;;5114773;27;20053;-77
2022/05/06 11:00:28;;;;;;;2.72;2.15;;;19.30;96.70;;;;;;5145413;27;20042;-77
2022/05/06 11:02:55;;;;;;;2.38;2.17;;;19.00;97.30;;;;;;5131634;27;20055;-77
2022/05/06 11:05:22;;;;;;;2.75;1.90;;;19.10;97.80;;;;;;5125988;27;20074;-77
2022/05/06 11:07:49;;;;;;;2.65;2.10;;;19.40;98.80;;;;;;5131742;27;20047;-77
2022/05/06 11:10:16;;;;;;;1.65;1.50;;;19.20;96.20;;;;;;5114092;27;20051;-76
2022/05/06 11:12:47;;;;;;;2.13;1.40;;;19.50;96.90;;;;;;5131791;27;20039;-77
2022/05/06 11:15:15;;;;;;;2.72;1.67;;;19.90;97.70;;;;;;5131726;27;20043;-77
2022/05/06 11:17:42;;;;;;;2.47;1.98;;;20.00;94.80;;;;;;5131643;27;20050;-77
2022/05/06 11:20:17;;;;;;;1.95;1.73;;;19.60;95.10;;;;;;5135573;27;20153;-77
2022/05/06 11:22:53;;;;;;;2.05;1.40;;;20.10;94.70;;;;;;5134689;27;20505;-77
2022/05/06 11:25:21;;;;;;;1.98;1.40;;;20.30;94.90;;;;;;5139166;27;20125;-77
2022/05/06 11:27:55;;;;;;;3.35;2.10;;;20.30;95.20;;;;;;5131670;27;20105;-77
2022/05/06 11:30:22;;;;;;;2.65;1.40;;;20.40;95.10;;;;;;5130713;27;20122;-77
2022/05/06 11:32:50;;;;;;;2.92;1.85;;;20.70;94.80;;;;;;5130203;27;20027;-74
2022/05/06 11:35:20;;;;;;;3.08;2.20;;;20.50;94.20;;;;;;5137178;27;20099;-74
2022/05/06 11:37:47;;;;;;;1.77;1.40;;;20.30;94.60;;;;;;5134040;27;20042;-77
2022/05/06 11:42:53;;;;;;;1.20;1.10;;;20.90;94.80;;;;;;5134606;27;20497;-77
2022/05/06 11:48:05;;;;;;;2.03;1.38;;;21.40;93.90;;;;;;5141549;27;20058;-77
2022/05/06 11:50:33;;;;;;;1.50;1.40;;;21.10;94.80;;;;;;5133977;27;20039;-77
2022/05/06 11:53:01;;;;;;;2.03;1.60;;;21.10;94.20;;;;;;5135769;27;20065;-78
2022/05/06 11:55:28;;;;;;;1.67;1.27;;;21.00;94.80;;;;;;5114096;27;20067;-79
2022/05/06 11:57:54;;;;;;;1.77;1.30;;;21.10;94.50;;;;;;5132883;27;20061;-77
2022/05/06 12:00:20;;;;;;;1.85;1.30;;;21.00;94.10;;;;;;5139845;27;20038;-78
2022/05/06 12:02:51;;;;;;;2.00;1.25;;;20.60;94.60;;;;;;5116064;27;20466;-78
2022/05/06 12:05:20;;;;;;;2.30;1.30;;;20.70;94.90;;;;;;5134620;27;20439;-78
2022/05/06 12:07:49;;;;;;;0.90;0.82;;;20.40;94.30;;;;;;5152119;27;20095;-78
2022/05/06 12:10:25;;;;;;;3.55;1.20;;;20.90;94.60;;;;;;5129216;27;20423;-77
2022/05/06 12:12:58;;;;;;;1.75;1.15;;;20.50;94.50;;;;;;5113425;27;20043;-77
2022/05/06 12:15:40;;;;;;;1.20;0.90;;;20.30;95.20;;;;;;5125675;27;20085;-77
2022/05/06 12:18:10;;;;;;;1.85;1.02;;;20.40;94.60;;;;;;5116831;27;20394;-77
2022/05/06 12:20:41;;;;;;;1.52;0.80;;;20.50;94.50;;;;;;5131234;27;20078;-77
2022/05/06 12:23:09;;;;;;;1.90;1.00;;;20.80;94.60;;;;;;5133037;27;20049;-78
2022/05/06 12:25:36;;;;;;;1.60;0.90;;;21.10;94.30;;;;;;5132212;27;20127;-79
2022/05/06 12:28:07;;;;;;;2.05;1.17;;;21.60;94.40;;;;;;5136720;27;20037;-78
2022/05/06 12:30:34;;;;;;;1.50;0.98;;;21.20;93.70;;;;;;5134323;27;20039;-79
2022/05/06 12:33:14;;;;;;;2.40;1.38;;;21.60;94.40;;;;;;5130124;27;20047;-78
2022/05/06 12:35:57;;;;;;;1.48;1.30;;;21.10;94.40;;;;;;5136827;27;20045;-78
2022/05/06 12:38:44;;;;;;;2.28;1.05;;;20.80;94.40;;;;;;5130030;27;20047;-78
2022/05/06 12:41:21;;;;;;;1.23;1.08;;;20.70;94.60;;;;;;5132358;27;20245;-79
2022/05/06 12:43:48;;;;;;;2.58;1.20;;;20.40;95.20;;;;;;5145999;27;20473;-79
2022/05/06 12:46:31;;;;;;;3.35;1.50;;;20.80;97.00;;;;;;5114505;27;21224;-78
2022/05/06 12:51:44;;;;;;;;;;;21.50;94.70;;;;;;5135103;27;20103;-78
2022/05/06 12:54:11;;;;;;;2.55;1.63;;;21.40;93.90;;;;;;5112953;27;19915;-79
2022/05/06 12:56:38;;;;;;;1.55;1.20;;;20.70;94.60;;;;;;5134013;27;20035;-79
2022/05/06 12:59:04;;;;;;;2.50;1.33;;;20.60;95.60;;;;;;5105223;27;20058;-79
2022/05/06 13:01:30;;;;;;;4.43;2.03;;;20.90;96.50;;;;;;5136152;27;20049;-80
2022/05/06 13:03:56;;;;;;;2.45;1.95;;;20.10;96.50;;;;;;5146343;27;20081;-81
2022/05/06 13:06:22;;;;;;;1.55;1.40;;;19.90;97.20;;;;;;5154462;27;20074;-81
2022/05/06 13:08:48;;;;;;;;;;;20.00;98.20;;;;;;5146678;27;20177;-82
2022/05/06 13:11:14;;;;;;;2.67;1.88;;;19.80;98.10;;;;;;5119153;27;19915;-80
2022/05/06 13:13:40;;;;;;;;;;;20.00;97.70;;;;;;5138764;27;20084;-81
2022/05/06 13:16:06;;;;;;;2.10;1.60;;;20.50;97.70;;;;;;5147299;27;19919;-84
2022/05/06 13:18:32;;;;;;;2.22;1.50;;;20.90;95.50;;;;;;5129630;27;20042;-85
2022/05/06 13:20:58;;;;;;;3.38;1.63;;;20.80;96.40;;;;;;5156979;27;20026;-85
2022/05/06 13:23:23;;;;;;;2.08;1.30;;;20.70;95.40;;;;;;5147018;27;20038;-86
2022/05/06 13:25:49;;;;;;;;;;;20.60;95.70;;;;;;5125178;27;20117;-86
2022/05/06 13:28:16;;;;;;;2.67;1.50;;;20.40;94.10;;;;;;5142745;27;19927;-78
2022/05/06 13:30:42;;;;;;;2.75;2.03;;;20.30;95.00;;;;;;5136166;27;20117;-77
2022/05/06 13:33:07;;;;;;;2.63;2.03;;;20.10;95.60;;;;;;5150047;27;20129;-78
2022/05/06 13:35:33;;;;;;;2.55;1.98;;;20.00;97.00;;;;;;5133604;27;20042;-78
2022/05/06 13:37:59;;;;;;;2.58;2.17;;;20.10;97.40;;;;;;5144537;27;20406;-78
2022/05/06 13:40:26;;;;;;;2.60;2.22;;;19.90;97.70;;;;;;5135428;27;20046;-78